KCLL/CLL METAR and TAF weather

Enter ICAO airport designator
Station Type Date Time Source
KCLL METAR 2021/07/27 22:53 UTC NOAA

KCLL 272253Z 29004KT 10SM CLR 34/22 A2994 RMK AO2 SLP133 T03440217


Station Type Date Time Source
KCLL Decoded METAR 2021/07/27 22:53 UTC NOAA

COLLEGE STN EASTERWOOD FIELD, TX, United States (KCLL) 30-35N 096-22W 96M
Jul 27, 2021 - 06:53 PM EDT / 2021.07.27 2253 UTC
Wind: from the WNW (290 degrees) at 5 MPH (4 KT):0
Visibility: 10 mile(s):0
Sky conditions: clear
Temperature: 93.9 F (34.4 C)
Heat index: 100.8 F (38.2 C):1
Dew Point: 71.1 F (21.7 C)
Relative Humidity: 47%
Pressure (altimeter): 29.94 in. Hg (1013 hPa)
ob: KCLL 272253Z 29004KT 10SM CLR 34/22 A2994 RMK AO2 SLP133 T03440217
cycle: 23

Station Type Date Time Source
KCLL TAF 2021/07/27 18:30 UTC NOAA

TAF KCLL 271728Z 2718/2818 21005KT P6SM SKC
FM280000 13005KT P6SM FEW050 SCT250
FM280300 VRB03KT P6SM BKN250
FM281500 31004KT P6SM BKN250

Example: see airport list